createdAt,value
2017-10-09T00:00:08.068Z,11.60
2017-10-09T00:02:34.976Z,11.50
2017-10-09T00:05:02.330Z,11.60
2017-10-09T00:07:29.231Z,11.60
2017-10-09T00:09:56.232Z,11.70
2017-10-09T00:12:23.574Z,12.00
2017-10-09T00:14:50.466Z,11.90
2017-10-09T00:17:17.357Z,12.00
2017-10-09T00:19:44.287Z,12.10
2017-10-09T00:22:11.262Z,12.20
2017-10-09T00:24:38.154Z,12.10
2017-10-09T00:27:05.159Z,12.20
2017-10-09T00:29:32.516Z,12.10
2017-10-09T00:31:59.806Z,12.20
2017-10-09T00:34:26.721Z,12.20
2017-10-09T00:36:54.069Z,12.30
2017-10-09T00:39:21.354Z,12.40
2017-10-09T00:41:48.284Z,12.40
2017-10-09T00:44:15.660Z,12.40
2017-10-09T00:46:42.545Z,12.40
2017-10-09T00:49:09.471Z,12.40
2017-10-09T00:51:36.377Z,12.50
2017-10-09T00:54:03.661Z,12.50
2017-10-09T00:56:30.581Z,12.50
2017-10-09T00:58:57.478Z,12.50
2017-10-09T01:01:24.450Z,12.60
2017-10-09T01:03:51.369Z,12.60
2017-10-09T01:06:18.342Z,12.60
2017-10-09T01:08:45.237Z,12.50
2017-10-09T01:11:12.165Z,12.50
2017-10-09T01:13:39.063Z,12.40
2017-10-09T01:16:06.036Z,12.40
2017-10-09T01:18:33.361Z,12.40
2017-10-09T01:21:00.253Z,12.40
2017-10-09T01:23:27.171Z,12.40
2017-10-09T01:25:54.114Z,12.30
2017-10-09T01:28:21.015Z,12.30
2017-10-09T01:30:47.908Z,12.30
2017-10-09T01:33:14.839Z,12.30
2017-10-09T01:35:41.798Z,12.30
2017-10-09T01:38:08.753Z,12.40
2017-10-09T01:40:36.077Z,12.30
2017-10-09T01:43:02.975Z,12.30
2017-10-09T01:45:29.869Z,12.30
2017-10-09T01:47:56.857Z,12.20
2017-10-09T01:50:24.214Z,12.40
2017-10-09T01:52:51.558Z,12.30
2017-10-09T01:55:18.477Z,12.30
2017-10-09T01:57:45.450Z,12.20
2017-10-09T02:00:12.337Z,12.30
2017-10-09T02:02:39.262Z,12.30
2017-10-09T02:05:06.186Z,12.30
2017-10-09T02:07:33.542Z,12.40
2017-10-09T02:10:00.470Z,12.40
2017-10-09T02:12:27.440Z,12.40
2017-10-09T02:14:54.735Z,12.40
2017-10-09T02:17:21.734Z,12.40
2017-10-09T02:19:49.095Z,12.40
2017-10-09T02:22:16.389Z,12.40
2017-10-09T02:24:43.309Z,12.50
2017-10-09T02:27:10.593Z,12.60
2017-10-09T02:29:37.593Z,12.60
2017-10-09T02:32:04.541Z,12.50
2017-10-09T02:34:31.903Z,12.60
2017-10-09T02:36:59.200Z,12.70
2017-10-09T02:39:26.133Z,12.60
2017-10-09T02:41:53.023Z,12.60
2017-10-09T02:44:19.915Z,12.50
2017-10-09T02:46:46.843Z,12.50
2017-10-09T02:49:14.165Z,12.40
2017-10-09T02:51:41.057Z,12.40
2017-10-09T02:54:08.085Z,12.40
2017-10-09T02:56:35.642Z,12.50
2017-10-09T02:59:02.537Z,12.50
2017-10-09T03:01:29.453Z,12.50
2017-10-09T03:03:56.754Z,12.60
2017-10-09T03:06:23.729Z,12.60
2017-10-09T03:08:50.677Z,12.50
2017-10-09T03:11:17.569Z,12.50
2017-10-09T03:13:44.471Z,12.40
2017-10-09T03:16:11.399Z,12.50
2017-10-09T03:18:38.363Z,12.50
2017-10-09T03:21:05.246Z,12.40
2017-10-09T03:23:32.195Z,12.40
2017-10-09T03:25:59.096Z,12.40
2017-10-09T03:28:25.986Z,12.40
2017-10-09T03:30:52.921Z,12.30
2017-10-09T03:33:19.839Z,12.40
2017-10-09T03:35:46.832Z,12.40
2017-10-09T03:38:13.825Z,12.40
2017-10-09T03:40:40.799Z,12.40
2017-10-09T03:43:08.086Z,12.40
2017-10-09T03:45:35.077Z,12.40
2017-10-09T03:48:01.962Z,12.30
2017-10-09T03:50:28.881Z,12.30
2017-10-09T03:52:56.329Z,12.20
2017-10-09T03:55:23.290Z,12.10
2017-10-09T03:57:50.565Z,12.20
2017-10-09T04:00:17.482Z,12.20
2017-10-09T04:02:44.829Z,12.20
2017-10-09T04:05:11.778Z,12.20
2017-10-09T04:07:39.134Z,12.20
2017-10-09T04:10:06.431Z,12.20
2017-10-09T04:12:33.336Z,12.30
2017-10-09T04:15:00.281Z,12.30
2017-10-09T04:17:27.382Z,12.30
2017-10-09T04:19:54.389Z,12.30
2017-10-09T04:22:21.745Z,12.40
2017-10-09T04:24:49.089Z,12.50
2017-10-09T04:27:15.988Z,12.50
2017-10-09T04:29:42.927Z,12.50
2017-10-09T04:32:09.817Z,12.50
2017-10-09T04:34:36.703Z,12.50
2017-10-09T04:37:03.621Z,12.60
2017-10-09T04:39:30.521Z,12.50
2017-10-09T04:41:57.413Z,12.50
2017-10-09T04:44:24.726Z,12.40
2017-10-09T04:46:51.613Z,12.50
2017-10-09T04:49:18.513Z,12.50
2017-10-09T04:51:45.450Z,12.60
2017-10-09T04:54:12.353Z,12.60
2017-10-09T04:56:39.241Z,12.60
2017-10-09T04:59:06.180Z,12.60
2017-10-09T05:01:33.085Z,12.60
2017-10-09T05:03:59.966Z,12.60
2017-10-09T05:06:26.885Z,12.70
2017-10-09T05:08:53.797Z,12.70
2017-10-09T05:11:20.723Z,12.70
2017-10-09T05:13:47.654Z,12.50
2017-10-09T05:16:14.541Z,12.40
2017-10-09T05:18:41.441Z,12.40
2017-10-09T05:21:08.366Z,12.30
2017-10-09T05:23:35.665Z,12.10
2017-10-09T05:26:02.626Z,12.10
2017-10-09T05:28:29.597Z,12.10
2017-10-09T05:30:56.550Z,12.10
2017-10-09T05:33:23.433Z,12.10
2017-10-09T05:35:50.365Z,12.00
2017-10-09T05:38:17.658Z,11.90
2017-10-09T05:40:44.554Z,11.90
2017-10-09T05:43:11.475Z,12.00
2017-10-09T05:45:38.441Z,12.00
2017-10-09T05:48:05.797Z,12.10
2017-10-09T05:50:33.134Z,12.10
2017-10-09T05:53:00.025Z,12.10
2017-10-09T05:55:26.933Z,12.10
2017-10-09T05:57:53.862Z,12.30
2017-10-09T06:00:20.835Z,12.30
2017-10-09T06:02:47.726Z,12.30
2017-10-09T06:05:14.674Z,12.30
2017-10-09T06:07:41.670Z,12.40
2017-10-09T06:10:08.564Z,12.40
2017-10-09T06:12:35.563Z,12.40
2017-10-09T06:15:02.453Z,12.40
2017-10-09T06:17:29.374Z,12.40
2017-10-09T06:19:56.693Z,12.40
2017-10-09T06:22:23.606Z,12.40
2017-10-09T06:24:50.605Z,12.50
2017-10-09T06:27:17.934Z,12.50
2017-10-09T06:29:44.911Z,12.50
2017-10-09T06:32:12.199Z,12.60
2017-10-09T06:34:39.157Z,12.60
2017-10-09T06:37:06.073Z,12.70
2017-10-09T06:39:33.002Z,12.80
2017-10-09T06:41:59.950Z,12.80
2017-10-09T06:44:26.889Z,12.90
2017-10-09T06:46:53.782Z,13.00
2017-10-09T06:49:20.781Z,13.00
2017-10-09T06:51:47.673Z,13.00
2017-10-09T06:54:14.600Z,13.00
2017-10-09T06:56:41.930Z,13.10
2017-10-09T06:59:08.873Z,13.10
2017-10-09T07:01:35.826Z,13.10
2017-10-09T07:04:02.782Z,13.10
2017-10-09T07:06:30.137Z,13.10
2017-10-09T07:08:57.481Z,13.20
2017-10-09T07:11:24.431Z,13.20
2017-10-09T07:13:51.317Z,13.20
2017-10-09T07:16:18.222Z,13.20
2017-10-09T07:18:45.172Z,13.40
2017-10-09T07:21:12.521Z,13.60
2017-10-09T07:23:39.474Z,13.60
2017-10-09T07:26:06.417Z,13.60
2017-10-09T07:28:33.362Z,13.70
2017-10-09T07:31:00.306Z,13.80
2017-10-09T07:33:27.253Z,13.90
2017-10-09T07:35:54.210Z,13.90
2017-10-09T07:38:21.492Z,14.00
2017-10-09T07:40:48.409Z,14.00
2017-10-09T07:43:15.344Z,14.10
2017-10-09T07:45:42.238Z,14.20
2017-10-09T07:48:09.162Z,14.30
2017-10-09T07:50:36.502Z,14.40
2017-10-09T07:53:03.790Z,14.50
2017-10-09T07:55:30.706Z,14.50
2017-10-09T07:57:58.054Z,14.60
2017-10-09T08:00:24.953Z,14.60
2017-10-09T08:02:51.941Z,14.70
2017-10-09T08:05:18.890Z,14.70
2017-10-09T08:07:45.778Z,14.70
2017-10-09T08:10:12.777Z,14.70
2017-10-09T08:12:39.730Z,14.80
2017-10-09T08:15:06.672Z,14.70
2017-10-09T08:17:33.601Z,14.70
2017-10-09T08:20:00.572Z,14.70
2017-10-09T08:22:27.536Z,14.80
2017-10-09T08:24:54.853Z,14.90
2017-10-09T08:27:21.812Z,14.90
2017-10-09T08:29:48.761Z,15.00
2017-10-09T08:32:16.161Z,15.20
2017-10-09T08:34:43.110Z,15.20
2017-10-09T08:37:09.994Z,15.20
2017-10-09T08:39:36.985Z,15.40
2017-10-09T08:42:03.882Z,15.50
2017-10-09T08:44:30.777Z,15.50
2017-10-09T08:46:57.792Z,15.50
2017-10-09T08:49:24.747Z,15.50
2017-10-09T08:51:51.692Z,15.50
2017-10-09T08:54:18.770Z,15.50
2017-10-09T08:56:45.669Z,15.50
2017-10-09T08:59:12.632Z,15.60
2017-10-09T09:01:39.586Z,15.70
2017-10-09T09:04:06.937Z,16.00
2017-10-09T09:06:33.927Z,16.00
2017-10-09T09:09:00.845Z,16.10
2017-10-09T09:11:29.865Z,16.20
2017-10-09T09:13:56.769Z,16.30
2017-10-09T09:16:23.693Z,16.30
2017-10-09T09:18:50.602Z,16.30
2017-10-09T09:21:17.486Z,16.40
2017-10-09T09:23:44.451Z,16.40
2017-10-09T09:26:11.399Z,16.40
2017-10-09T09:28:38.286Z,16.40
2017-10-09T09:31:05.206Z,16.50
2017-10-09T09:33:32.534Z,16.70
2017-10-09T09:35:59.492Z,16.70
2017-10-09T09:38:26.437Z,16.70
2017-10-09T09:40:53.382Z,16.80
2017-10-09T09:43:20.328Z,16.80
2017-10-09T09:45:47.214Z,16.80
2017-10-09T09:48:14.202Z,16.90
2017-10-09T09:50:41.165Z,17.00
2017-10-09T09:53:08.114Z,17.00
2017-10-09T09:55:35.029Z,17.00
2017-10-09T09:58:02.016Z,17.10
2017-10-09T10:00:29.370Z,17.00
2017-10-09T10:02:56.311Z,17.00
2017-10-09T10:05:23.262Z,16.90
2017-10-09T10:07:50.238Z,16.90
2017-10-09T10:10:17.154Z,16.90
2017-10-09T10:12:44.105Z,16.70
2017-10-09T10:15:11.386Z,15.90
2017-10-09T10:17:38.322Z,15.90
2017-10-09T10:20:05.245Z,15.80
2017-10-09T10:22:32.214Z,15.70
2017-10-09T10:24:59.547Z,15.80
2017-10-09T10:27:26.439Z,15.80
2017-10-09T10:29:53.330Z,16.00
2017-10-09T10:32:20.278Z,16.30
2017-10-09T10:34:47.164Z,16.40
2017-10-09T10:37:14.054Z,16.70
2017-10-09T10:39:40.974Z,16.80
2017-10-09T10:42:07.857Z,16.90
2017-10-09T10:44:34.755Z,17.00
2017-10-09T10:47:01.753Z,17.10
2017-10-09T10:49:28.705Z,16.90
2017-10-09T10:51:55.580Z,17.00
2017-10-09T10:54:22.505Z,17.10
2017-10-09T10:56:49.794Z,17.10
2017-10-09T10:59:16.693Z,17.10
2017-10-09T11:01:43.646Z,17.40
2017-10-09T11:04:11.021Z,17.60
2017-10-09T11:06:38.359Z,17.30
2017-10-09T11:09:05.277Z,17.30
2017-10-09T11:11:32.157Z,17.10
2017-10-09T11:13:59.497Z,17.10
2017-10-09T11:16:26.446Z,17.10
2017-10-09T11:18:53.388Z,16.70
2017-10-09T11:21:20.282Z,16.60
2017-10-09T11:23:47.285Z,16.70
2017-10-09T11:26:14.165Z,16.90
2017-10-09T11:28:41.077Z,17.20
2017-10-09T11:31:07.999Z,17.50
2017-10-09T11:33:34.970Z,17.70
2017-10-09T11:36:01.923Z,17.90
2017-10-09T11:38:28.861Z,17.80
2017-10-09T11:40:55.816Z,17.80
2017-10-09T11:43:22.707Z,17.70
2017-10-09T11:45:49.710Z,17.60
2017-10-09T11:48:16.664Z,17.50
2017-10-09T11:50:44.006Z,17.30
2017-10-09T11:53:10.922Z,17.30
2017-10-09T11:55:37.918Z,17.30
2017-10-09T11:58:05.263Z,17.40
2017-10-09T12:00:32.197Z,17.40
2017-10-09T12:02:59.081Z,17.50
2017-10-09T12:05:26.098Z,17.40
2017-10-09T12:07:53.041Z,17.40
2017-10-09T12:10:19.985Z,17.20
2017-10-09T12:12:46.869Z,17.20
2017-10-09T12:15:13.891Z,16.80
2017-10-09T12:17:41.242Z,15.80
2017-10-09T12:20:08.231Z,15.90
2017-10-09T12:22:35.145Z,15.90
2017-10-09T12:25:02.491Z,16.40
2017-10-09T12:27:29.854Z,16.40
2017-10-09T12:29:57.201Z,16.70
2017-10-09T12:32:24.113Z,16.70
2017-10-09T12:34:51.093Z,16.90
2017-10-09T12:37:18.053Z,17.00
2017-10-09T12:39:45.396Z,17.40
2017-10-09T12:42:12.290Z,17.40
2017-10-09T12:44:39.214Z,17.50
2017-10-09T12:47:06.133Z,17.60
2017-10-09T12:49:33.094Z,17.50
2017-10-09T12:52:00.414Z,17.60
2017-10-09T12:54:27.313Z,17.70
2017-10-09T12:56:54.201Z,17.80
2017-10-09T12:59:21.214Z,17.80
2017-10-09T13:01:48.122Z,17.80
2017-10-09T13:04:15.058Z,17.90
2017-10-09T13:06:41.989Z,18.00
2017-10-09T13:09:09.010Z,18.00
2017-10-09T13:11:36.011Z,18.00
2017-10-09T13:14:02.930Z,18.00
2017-10-09T13:16:29.897Z,17.90
2017-10-09T13:18:56.849Z,17.90
2017-10-09T13:21:24.188Z,18.00
2017-10-09T13:23:51.070Z,18.00
2017-10-09T13:26:18.354Z,17.70
2017-10-09T13:28:45.354Z,17.70
2017-10-09T13:31:12.238Z,17.70
2017-10-09T13:33:39.133Z,17.60
2017-10-09T13:36:06.128Z,17.50
2017-10-09T13:38:33.013Z,17.50
2017-10-09T13:40:59.981Z,17.40
2017-10-09T13:43:26.923Z,17.30
2017-10-09T13:45:53.806Z,17.30
2017-10-09T13:48:20.693Z,17.30
2017-10-09T13:50:47.670Z,17.20
2017-10-09T13:53:15.029Z,16.90
2017-10-09T13:55:42.317Z,16.80
2017-10-09T13:58:09.313Z,16.80
2017-10-09T14:00:36.195Z,16.60
2017-10-09T14:03:03.094Z,16.40
2017-10-09T14:05:30.017Z,16.50
2017-10-09T14:07:57.001Z,16.60
2017-10-09T14:10:23.957Z,16.60
2017-10-09T14:12:50.873Z,16.80
2017-10-09T14:15:17.762Z,17.00
2017-10-09T14:17:45.041Z,17.20
2017-10-09T14:20:12.051Z,17.20
2017-10-09T14:22:38.979Z,17.00
2017-10-09T14:25:05.921Z,16.80
2017-10-09T14:27:32.841Z,16.70
2017-10-09T14:29:59.785Z,16.50
2017-10-09T14:39:47.368Z,15.90
2017-10-09T14:42:14.301Z,16.00
2017-10-09T14:44:41.206Z,16.20
2017-10-09T14:47:08.573Z,16.30
2017-10-09T14:49:35.967Z,16.10
2017-10-09T14:52:02.845Z,16.10
2017-10-09T14:54:29.735Z,15.90
2017-10-09T14:56:57.049Z,15.60
2017-10-09T14:59:23.930Z,15.60
2017-10-09T15:01:51.290Z,15.30
2017-10-09T15:04:18.626Z,15.20
2017-10-09T15:06:45.577Z,15.20
2017-10-09T15:09:12.462Z,14.50
2017-10-09T15:11:39.381Z,14.10
2017-10-09T15:14:06.714Z,14.30
2017-10-09T15:16:34.004Z,14.40
2017-10-09T15:19:00.919Z,14.40
2017-10-09T15:21:27.909Z,14.50
2017-10-09T15:23:54.816Z,14.60
2017-10-09T15:26:21.750Z,14.60
2017-10-09T15:28:48.630Z,14.70
2017-10-09T15:31:15.513Z,14.70
2017-10-09T15:33:42.490Z,14.80
2017-10-09T15:36:09.449Z,14.90
2017-10-09T15:38:36.392Z,14.90
2017-10-09T15:41:03.309Z,14.90
2017-10-09T15:43:30.220Z,14.90
2017-10-09T15:45:57.103Z,14.80
2017-10-09T15:48:24.065Z,14.80
2017-10-09T15:50:51.014Z,14.90
2017-10-09T15:53:17.963Z,14.90
2017-10-09T15:55:44.910Z,14.90
2017-10-09T15:58:11.793Z,15.00
2017-10-09T16:00:38.674Z,15.00
2017-10-09T16:03:05.702Z,14.90
2017-10-09T16:05:32.586Z,14.90
2017-10-09T16:07:59.545Z,14.90
2017-10-09T16:10:26.470Z,14.90
2017-10-09T16:12:53.432Z,14.90
2017-10-09T16:15:20.315Z,15.00
2017-10-09T16:17:47.234Z,15.00
2017-10-09T16:20:14.548Z,15.10
2017-10-09T16:22:41.526Z,15.10
2017-10-09T16:25:08.474Z,15.00
2017-10-09T16:27:35.421Z,15.00
2017-10-09T16:30:02.706Z,15.00
2017-10-09T16:32:29.622Z,15.10
2017-10-09T16:34:56.541Z,15.00
2017-10-09T16:37:23.520Z,15.00
2017-10-09T16:39:50.850Z,15.00
2017-10-09T16:42:17.745Z,15.10
2017-10-09T16:44:44.630Z,15.10
2017-10-09T16:47:11.614Z,15.10
2017-10-09T16:49:39.003Z,15.10
2017-10-09T16:52:05.899Z,15.10
2017-10-09T16:54:32.829Z,15.10
2017-10-09T16:56:59.805Z,15.10
2017-10-09T16:59:27.095Z,15.00
2017-10-09T17:01:54.110Z,15.00
2017-10-09T17:04:21.453Z,14.80
2017-10-09T17:06:48.374Z,14.80
2017-10-09T17:09:15.349Z,14.70
2017-10-09T17:11:42.303Z,14.70
2017-10-09T17:14:09.666Z,14.80
2017-10-09T17:16:37.058Z,14.80
2017-10-09T17:19:03.977Z,14.80
2017-10-09T17:21:30.903Z,14.80
2017-10-09T17:23:57.845Z,14.90
2017-10-09T17:26:24.747Z,14.90
2017-10-09T17:28:51.629Z,15.00
2017-10-09T17:31:18.589Z,15.00
2017-10-09T17:33:45.538Z,15.00
2017-10-09T17:36:12.817Z,14.80
2017-10-09T17:38:39.835Z,14.80
2017-10-09T17:41:06.727Z,14.90
2017-10-09T17:43:33.844Z,15.00
2017-10-09T17:46:01.229Z,15.00
2017-10-09T17:48:28.117Z,15.00
2017-10-09T17:50:55.083Z,14.90
2017-10-09T17:53:21.998Z,14.90
2017-10-09T17:55:48.890Z,14.90
2017-10-09T17:58:16.172Z,15.00
2017-10-09T18:00:43.111Z,15.00
2017-10-09T18:03:09.994Z,14.90
2017-10-09T18:05:36.965Z,14.90
2017-10-09T18:08:03.882Z,14.90
2017-10-09T18:10:30.858Z,14.90
2017-10-09T18:12:58.135Z,14.90
2017-10-09T18:15:25.067Z,14.90
2017-10-09T18:17:52.416Z,14.80
2017-10-09T18:20:19.306Z,14.80
2017-10-09T18:22:46.230Z,14.90
2017-10-09T18:25:13.126Z,14.90
2017-10-09T18:27:40.098Z,14.90
2017-10-09T18:30:07.041Z,14.80
2017-10-09T18:32:34.397Z,14.80
2017-10-09T18:35:01.774Z,14.80
2017-10-09T18:37:29.110Z,14.80
2017-10-09T18:39:56.007Z,14.80
2017-10-09T18:42:22.891Z,14.80
2017-10-09T18:44:49.810Z,14.80
2017-10-09T18:47:16.786Z,14.90
2017-10-09T18:49:43.738Z,14.90
2017-10-09T18:52:10.662Z,14.80
2017-10-09T18:54:37.633Z,14.80
2017-10-09T18:57:04.578Z,14.80
2017-10-09T18:59:31.518Z,14.80
2017-10-09T19:01:58.474Z,14.70
2017-10-09T19:04:25.826Z,14.80
2017-10-09T19:06:52.774Z,14.80
2017-10-09T19:09:20.105Z,14.80
2017-10-09T19:11:47.093Z,14.80
2017-10-09T19:14:14.430Z,14.70
2017-10-09T19:16:41.378Z,14.70
2017-10-09T19:19:08.322Z,14.70
2017-10-09T19:21:35.240Z,14.70
2017-10-09T19:24:02.338Z,14.70
2017-10-09T19:26:29.618Z,14.70
2017-10-09T19:28:56.502Z,14.70
2017-10-09T19:31:23.446Z,14.70
2017-10-09T19:33:50.338Z,14.70
2017-10-09T19:36:17.262Z,14.70
2017-10-09T19:38:44.573Z,14.70
2017-10-09T19:41:11.470Z,14.70
2017-10-09T19:43:38.790Z,14.60
2017-10-09T19:46:05.683Z,14.60
2017-10-09T19:48:32.562Z,14.60
2017-10-09T19:50:59.547Z,14.70
2017-10-09T19:53:26.430Z,14.70
2017-10-09T19:55:53.342Z,14.60
2017-10-09T19:58:20.261Z,14.60
2017-10-09T20:00:47.229Z,14.60
2017-10-09T20:03:14.139Z,14.60
2017-10-09T20:05:41.067Z,14.60
2017-10-09T20:08:08.113Z,14.70
2017-10-09T20:10:34.994Z,14.60
2017-10-09T20:13:01.921Z,14.70
2017-10-09T20:15:28.810Z,14.70
2017-10-09T20:17:55.754Z,14.60
2017-10-09T20:20:22.679Z,14.50
2017-10-09T20:22:49.641Z,14.40
2017-10-09T20:25:16.589Z,14.40
2017-10-09T20:27:43.537Z,14.40
2017-10-09T20:30:10.443Z,14.30
2017-10-09T20:32:37.333Z,14.30
2017-10-09T20:35:04.248Z,14.40
2017-10-09T20:37:31.217Z,14.40
2017-10-09T20:39:58.182Z,14.30
2017-10-09T20:42:25.503Z,14.30
2017-10-09T20:44:52.381Z,14.30
2017-10-09T20:47:19.727Z,14.30
2017-10-09T20:49:46.645Z,14.30
2017-10-09T20:52:13.622Z,14.30
2017-10-09T20:54:40.581Z,14.30
2017-10-09T20:57:07.923Z,14.40
2017-10-09T20:59:34.874Z,14.40
2017-10-09T21:02:02.222Z,14.40
2017-10-09T21:04:29.160Z,14.40
2017-10-09T21:06:56.046Z,14.50
2017-10-09T21:09:22.962Z,14.50
2017-10-09T21:11:49.914Z,14.50
2017-10-09T21:14:17.290Z,14.50
2017-10-09T21:16:44.213Z,14.50
2017-10-09T21:19:11.159Z,14.40
2017-10-09T21:21:38.097Z,14.30
2017-10-09T21:24:04.978Z,14.30
2017-10-09T21:26:31.901Z,14.30
2017-10-09T21:28:59.182Z,14.30
2017-10-09T21:31:26.135Z,14.30
2017-10-09T21:33:53.067Z,14.30
2017-10-09T21:36:19.955Z,14.30
2017-10-09T21:38:46.975Z,14.40
2017-10-09T21:41:13.902Z,14.30
2017-10-09T21:43:40.826Z,14.40
2017-10-09T21:46:07.710Z,14.40
2017-10-09T21:48:34.730Z,14.30
2017-10-09T21:51:02.017Z,14.20
2017-10-09T21:53:28.926Z,14.20
2017-10-09T21:55:56.269Z,14.30
2017-10-09T21:58:23.222Z,14.30
2017-10-09T22:00:50.581Z,14.20
2017-10-09T22:03:17.536Z,14.20
2017-10-09T22:05:44.831Z,14.20
2017-10-09T22:08:11.718Z,14.20
2017-10-09T22:10:38.670Z,14.20
2017-10-09T22:13:05.614Z,14.30
2017-10-09T22:15:32.561Z,14.30
2017-10-09T22:17:59.489Z,14.30
2017-10-09T22:20:26.395Z,14.30
2017-10-09T22:22:53.281Z,14.40
2017-10-09T22:25:20.252Z,14.40
2017-10-09T22:27:47.593Z,14.20
2017-10-09T22:30:14.552Z,14.20
2017-10-09T22:32:41.874Z,14.20
2017-10-09T22:35:08.760Z,14.20
2017-10-09T22:37:36.098Z,14.10
2017-10-09T22:40:03.051Z,14.10
2017-10-09T22:42:29.950Z,14.00
2017-10-09T22:44:56.837Z,14.00
2017-10-09T22:47:23.766Z,14.10
2017-10-09T22:49:50.729Z,14.10
2017-10-09T22:52:17.624Z,14.10
2017-10-09T22:54:44.621Z,14.20
2017-10-09T22:57:11.570Z,14.20
2017-10-09T22:59:38.513Z,14.20
2017-10-09T23:02:05.458Z,14.30
2017-10-09T23:04:32.405Z,14.20
2017-10-09T23:06:59.289Z,14.20
2017-10-09T23:09:26.298Z,14.20
2017-10-09T23:11:53.189Z,14.20
2017-10-09T23:14:20.070Z,14.10
2017-10-09T23:16:47.033Z,14.10
2017-10-09T23:19:13.982Z,14.10
2017-10-09T23:21:40.879Z,14.10
2017-10-09T23:24:07.874Z,14.20
2017-10-09T23:26:34.819Z,14.10
2017-10-09T23:29:01.779Z,14.10
2017-10-09T23:31:29.122Z,14.10
2017-10-09T23:33:56.086Z,14.10
2017-10-09T23:36:23.370Z,14.20
2017-10-09T23:38:50.304Z,14.20
2017-10-09T23:41:17.225Z,14.20
2017-10-09T23:43:44.591Z,14.20
2017-10-09T23:46:11.931Z,14.20
2017-10-09T23:48:38.830Z,14.20
2017-10-09T23:51:05.717Z,14.20
2017-10-09T23:53:32.679Z,14.20
2017-10-09T23:55:59.953Z,14.20
2017-10-09T23:58:26.870Z,14.20
